createdAt,value
2022-12-13T00:00:05.838Z,738
2022-12-13T00:15:05.944Z,727
2022-12-13T00:30:05.075Z,718
2022-12-13T00:45:03.818Z,712
2022-12-13T01:00:05.673Z,708
2022-12-13T01:15:02.830Z,706
2022-12-13T01:30:05.869Z,703
2022-12-13T01:45:05.216Z,699
2022-12-13T02:00:04.744Z,693
2022-12-13T02:15:03.057Z,686
2022-12-13T02:30:04.103Z,678
2022-12-13T02:45:01.982Z,671
2022-12-13T03:00:05.821Z,667
2022-12-13T03:15:03.770Z,665
2022-12-13T03:30:04.675Z,665
2022-12-13T03:45:04.987Z,668
2022-12-13T04:00:01.731Z,672
2022-12-13T04:15:03.925Z,673
2022-12-13T04:30:02.758Z,674
2022-12-13T04:45:02.898Z,673
2022-12-13T05:00:01.837Z,668
2022-12-13T05:15:06.053Z,664
2022-12-13T05:30:02.099Z,666
2022-12-13T05:45:03.783Z,688
2022-12-13T06:00:02.696Z,718
2022-12-13T06:15:02.762Z,765
2022-12-13T06:30:03.837Z,816
2022-12-13T06:45:04.757Z,855
2022-12-13T07:00:04.203Z,851
2022-12-13T07:15:04.092Z,829
2022-12-13T07:30:01.929Z,780
2022-12-13T07:45:05.177Z,722
2022-12-13T08:00:02.975Z,663
2022-12-13T08:15:05.934Z,624
2022-12-13T08:30:03.234Z,591
2022-12-13T08:45:05.225Z,564
2022-12-13T09:00:02.839Z,541
2022-12-13T09:15:06.072Z,522
2022-12-13T09:30:05.006Z,503
2022-12-13T09:45:04.840Z,487
2022-12-13T10:00:03.013Z,474
2022-12-13T10:15:03.065Z,462
2022-12-13T10:30:05.121Z,450
2022-12-13T10:45:03.835Z,440
2022-12-13T11:00:04.759Z,431
2022-12-13T11:15:04.063Z,426
2022-12-13T11:30:02.939Z,424
2022-12-13T11:45:06.037Z,421
2022-12-13T12:00:02.202Z,427
2022-12-13T12:15:01.962Z,436
2022-12-13T12:30:03.342Z,441
2022-12-13T12:45:03.135Z,448
2022-12-13T13:00:03.986Z,470
2022-12-13T13:15:01.858Z,489
2022-12-13T13:30:06.138Z,509
2022-12-13T13:45:06.148Z,534
2022-12-13T14:00:05.741Z,555
2022-12-13T14:15:03.848Z,564
2022-12-13T14:30:02.752Z,569
2022-12-13T14:45:03.815Z,573
2022-12-13T15:00:04.626Z,576
2022-12-13T15:15:02.913Z,577
2022-12-13T15:30:05.036Z,576
2022-12-13T15:45:03.726Z,580
2022-12-13T16:00:03.183Z,586
2022-12-13T16:15:02.720Z,598
2022-12-13T16:30:01.676Z,617
2022-12-13T16:45:05.910Z,640
2022-12-13T17:00:02.139Z,661
2022-12-13T17:15:02.723Z,681
2022-12-13T17:30:02.790Z,696
2022-12-13T17:45:02.851Z,707
2022-12-13T18:00:03.908Z,713
2022-12-13T18:15:02.804Z,717
2022-12-13T18:30:03.881Z,718
2022-12-13T18:45:05.996Z,722
2022-12-13T19:00:06.059Z,726
2022-12-13T19:15:06.163Z,743
2022-12-13T19:30:04.770Z,762
2022-12-13T19:45:03.112Z,779
2022-12-13T20:00:02.730Z,791
2022-12-13T20:15:03.707Z,797
2022-12-13T20:30:06.206Z,791
2022-12-13T20:45:02.794Z,778
2022-12-13T21:00:02.913Z,761
2022-12-13T21:15:05.969Z,742
2022-12-13T21:30:03.173Z,727
2022-12-13T21:45:04.230Z,712
2022-12-13T22:00:04.059Z,698
2022-12-13T22:15:05.959Z,691
2022-12-13T22:30:03.263Z,687
2022-12-13T22:45:05.114Z,680
2022-12-13T23:00:04.950Z,676
2022-12-13T23:15:04.061Z,672
2022-12-13T23:30:05.064Z,665
2022-12-13T23:45:01.903Z,655
